createdAt,value
2018-10-05T00:01:10.335Z,11.10
2018-10-05T00:03:38.377Z,11.00
2018-10-05T00:06:06.653Z,11.00
2018-10-05T00:08:34.732Z,10.90
2018-10-05T00:11:02.871Z,10.90
2018-10-05T00:13:30.958Z,10.90
2018-10-05T00:15:59.046Z,10.90
2018-10-05T00:18:27.123Z,11.00
2018-10-05T00:20:55.240Z,11.00
2018-10-05T00:23:23.338Z,11.20
2018-10-05T00:25:51.436Z,11.30
2018-10-05T00:28:19.593Z,11.30
2018-10-05T00:30:47.706Z,11.40
2018-10-05T00:33:15.822Z,11.50
2018-10-05T00:35:43.915Z,11.60
2018-10-05T00:38:11.998Z,11.70
2018-10-05T00:40:40.305Z,11.70
2018-10-05T00:43:08.384Z,11.70
2018-10-05T00:45:36.446Z,11.70
2018-10-05T00:48:04.522Z,11.70
2018-10-05T00:50:33.655Z,11.70
2018-10-05T00:53:01.787Z,11.70
2018-10-05T00:55:29.857Z,11.80
2018-10-05T00:57:58.029Z,11.80
2018-10-05T01:00:26.141Z,11.80
2018-10-05T01:02:54.222Z,11.80
2018-10-05T01:05:22.307Z,11.80
2018-10-05T01:07:50.436Z,11.80
2018-10-05T01:10:18.664Z,11.80
2018-10-05T01:12:46.766Z,11.70
2018-10-05T01:15:14.851Z,11.80
2018-10-05T01:17:43.953Z,11.80
2018-10-05T01:20:12.057Z,11.80
2018-10-05T01:22:40.149Z,11.70
2018-10-05T01:25:08.231Z,11.70
2018-10-05T01:27:36.323Z,11.70
2018-10-05T01:30:04.435Z,11.70
2018-10-05T01:32:32.578Z,11.60
2018-10-05T01:35:00.655Z,11.60
2018-10-05T01:37:28.735Z,11.60
2018-10-05T01:39:56.827Z,11.60
2018-10-05T01:42:24.931Z,11.60
2018-10-05T01:44:53.014Z,11.60
2018-10-05T01:47:21.141Z,11.70
2018-10-05T01:49:49.205Z,11.80
2018-10-05T01:52:17.326Z,11.80
2018-10-05T01:54:45.399Z,11.80
2018-10-05T01:57:13.480Z,11.80
2018-10-05T01:59:41.557Z,11.80
2018-10-05T02:02:09.717Z,11.80
2018-10-05T02:04:37.805Z,11.80
2018-10-05T02:07:05.884Z,11.80
2018-10-05T02:09:33.988Z,11.80
2018-10-05T02:12:02.093Z,11.90
2018-10-05T02:14:30.172Z,11.80
2018-10-05T02:16:58.425Z,11.80
2018-10-05T02:19:26.517Z,11.80
2018-10-05T02:21:54.654Z,11.70
2018-10-05T02:24:22.776Z,11.70
2018-10-05T02:26:50.868Z,11.70
2018-10-05T02:29:18.962Z,11.70
2018-10-05T02:31:47.042Z,11.70
2018-10-05T02:34:15.411Z,11.80
2018-10-05T02:36:43.516Z,11.80
2018-10-05T02:39:12.836Z,11.70
2018-10-05T02:41:41.060Z,11.80
2018-10-05T02:44:09.149Z,11.80
2018-10-05T02:46:37.251Z,11.90
2018-10-05T02:49:05.447Z,11.90
2018-10-05T02:51:33.523Z,11.90
2018-10-05T02:54:01.669Z,11.80
2018-10-05T02:56:29.764Z,11.70
2018-10-05T02:58:57.863Z,11.70
2018-10-05T03:02:33.666Z,11.70
2018-10-05T03:05:01.792Z,11.70
2018-10-05T03:07:30.754Z,11.60
2018-10-05T03:09:59.899Z,11.50
2018-10-05T03:12:28.110Z,11.50
2018-10-05T03:14:56.219Z,11.50
2018-10-05T03:17:24.344Z,11.50
2018-10-05T03:19:52.538Z,11.50
2018-10-05T03:22:20.527Z,11.50
2018-10-05T03:24:48.632Z,11.60
2018-10-05T03:27:16.734Z,11.60
2018-10-05T03:29:44.814Z,11.50
2018-10-05T03:32:12.903Z,11.50
2018-10-05T03:34:40.980Z,11.40
2018-10-05T03:37:09.051Z,11.30
2018-10-05T03:39:37.127Z,11.30
2018-10-05T03:42:05.179Z,11.40
2018-10-05T03:44:33.237Z,11.40
2018-10-05T03:47:01.297Z,11.30
2018-10-05T03:49:29.423Z,11.20
2018-10-05T03:51:57.489Z,11.10
2018-10-05T03:54:25.973Z,11.10
2018-10-05T03:56:54.053Z,10.90
2018-10-05T03:59:22.122Z,10.70
2018-10-05T04:01:50.203Z,10.70
2018-10-05T04:04:18.261Z,10.60
2018-10-05T04:06:46.343Z,10.50
2018-10-05T04:09:14.425Z,10.30
2018-10-05T04:11:42.495Z,10.10
2018-10-05T04:14:11.101Z,9.90
2018-10-05T04:16:39.173Z,9.70
2018-10-05T04:19:07.374Z,9.60
2018-10-05T04:21:35.434Z,9.50
2018-10-05T04:24:03.544Z,9.40
2018-10-05T04:26:31.590Z,9.20
2018-10-05T04:28:59.658Z,9.00
2018-10-05T04:31:27.740Z,8.90
2018-10-05T04:33:55.787Z,8.70
2018-10-05T04:36:23.911Z,8.60
2018-10-05T04:38:51.930Z,8.60
2018-10-05T04:41:20.042Z,8.60
2018-10-05T04:43:48.140Z,8.40
2018-10-05T04:46:16.271Z,8.30
2018-10-05T04:48:44.366Z,8.30
2018-10-05T04:51:12.466Z,8.20
2018-10-05T04:53:40.563Z,8.20
2018-10-05T04:56:08.823Z,8.20
2018-10-05T04:58:36.945Z,8.10
2018-10-05T05:01:05.015Z,7.90
2018-10-05T05:03:33.091Z,7.90
2018-10-05T05:06:01.173Z,7.90
2018-10-05T05:08:29.263Z,7.70
2018-10-05T05:10:57.387Z,7.60
2018-10-05T05:13:25.411Z,7.50
2018-10-05T05:15:53.498Z,7.50
2018-10-05T05:18:21.581Z,7.40
2018-10-05T05:20:49.651Z,7.50
2018-10-05T05:23:17.821Z,7.50
2018-10-05T05:25:46.236Z,7.40
2018-10-05T05:28:14.346Z,7.40
2018-10-05T05:30:42.430Z,7.40
2018-10-05T05:33:10.504Z,7.40
2018-10-05T05:35:38.620Z,7.40
2018-10-05T05:38:06.730Z,7.50
2018-10-05T05:40:34.930Z,7.50
2018-10-05T05:43:03.073Z,7.60
2018-10-05T05:45:31.263Z,7.70
2018-10-05T05:47:59.372Z,7.90
2018-10-05T05:50:27.505Z,8.10
2018-10-05T05:52:55.631Z,8.60
2018-10-05T05:55:23.729Z,9.20
2018-10-05T05:57:51.875Z,9.80
2018-10-05T06:00:19.977Z,10.30
2018-10-05T06:02:48.975Z,10.70
2018-10-05T06:05:17.104Z,11.10
2018-10-05T06:07:45.259Z,11.50
2018-10-05T06:10:13.373Z,11.80
2018-10-05T06:12:41.512Z,12.20
2018-10-05T06:15:09.622Z,12.50
2018-10-05T06:17:37.711Z,12.80
2018-10-05T06:20:06.147Z,13.30
2018-10-05T06:22:34.341Z,13.60
2018-10-05T06:25:03.418Z,14.10
2018-10-05T06:27:31.617Z,14.60
2018-10-05T06:29:59.674Z,15.10
2018-10-05T06:32:27.770Z,15.40
2018-10-05T06:34:55.975Z,15.90
2018-10-05T06:37:26.425Z,16.10
2018-10-05T06:39:54.536Z,16.30
2018-10-05T06:42:22.742Z,16.60
2018-10-05T06:44:50.815Z,16.60
2018-10-05T06:47:18.954Z,16.60
2018-10-05T06:49:47.122Z,16.50
2018-10-05T06:52:15.230Z,16.40
2018-10-05T06:54:43.369Z,16.50
2018-10-05T06:57:11.520Z,16.60
2018-10-05T06:59:39.746Z,16.60
2018-10-05T07:02:07.894Z,16.70
2018-10-05T07:04:36.112Z,16.70
2018-10-05T07:07:07.219Z,16.90
2018-10-05T07:09:35.399Z,17.00
2018-10-05T07:12:03.501Z,17.20
2018-10-05T07:14:31.703Z,17.30
2018-10-05T07:16:59.893Z,17.50
2018-10-05T07:19:27.932Z,17.70
2018-10-05T07:21:56.076Z,17.70
2018-10-05T07:24:24.225Z,17.80
2018-10-05T07:26:52.407Z,17.90
2018-10-05T07:29:20.606Z,18.10
2018-10-05T07:31:48.817Z,18.30
2018-10-05T07:34:16.953Z,18.30
2018-10-05T07:36:45.231Z,18.60
2018-10-05T07:39:13.312Z,18.80
2018-10-05T07:41:41.486Z,18.90
2018-10-05T07:44:10.611Z,19.00
2018-10-05T07:46:38.883Z,19.00
2018-10-05T07:49:07.806Z,19.00
2018-10-05T07:51:35.958Z,19.10
2018-10-05T07:54:04.171Z,19.50
2018-10-05T07:56:32.286Z,19.80
2018-10-05T07:59:00.418Z,20.30
2018-10-05T08:01:28.652Z,20.70
2018-10-05T08:03:57.834Z,21.20
2018-10-05T08:06:25.935Z,21.40
2018-10-05T08:08:54.099Z,21.50
2018-10-05T08:11:22.269Z,21.50
2018-10-05T08:13:50.406Z,21.50
2018-10-05T08:16:18.589Z,21.70
2018-10-05T08:18:46.837Z,21.80
2018-10-05T08:21:14.992Z,21.90
2018-10-05T08:23:43.989Z,22.40
2018-10-05T08:26:12.163Z,23.00
2018-10-05T08:28:40.302Z,23.30
2018-10-05T08:31:08.451Z,23.20
2018-10-05T08:33:36.623Z,23.40
2018-10-05T08:36:04.732Z,23.20
2018-10-05T08:38:32.852Z,23.20
2018-10-05T08:41:01.309Z,23.50
2018-10-05T08:43:29.483Z,23.80
2018-10-05T08:45:57.677Z,23.90
2018-10-05T08:48:25.745Z,24.20
2018-10-05T08:50:53.874Z,24.20
2018-10-05T08:53:22.008Z,24.00
2018-10-05T08:55:50.176Z,23.80
2018-10-05T08:58:18.299Z,23.80
2018-10-05T09:00:46.726Z,24.10
2018-10-05T09:03:14.845Z,24.50
2018-10-05T09:05:43.043Z,25.30
2018-10-05T09:08:11.199Z,25.70
2018-10-05T09:10:39.300Z,25.70
2018-10-05T09:13:07.438Z,25.60
2018-10-05T09:15:35.586Z,25.30
2018-10-05T09:18:03.737Z,25.20
2018-10-05T09:20:31.904Z,25.60
2018-10-05T09:23:00.039Z,25.50
2018-10-05T09:25:28.179Z,25.00
2018-10-05T09:27:56.330Z,25.10
2018-10-05T09:30:24.516Z,25.60
2018-10-05T09:32:52.687Z,26.00
2018-10-05T09:35:20.818Z,26.80
2018-10-05T09:37:49.004Z,27.10
2018-10-05T09:40:17.133Z,27.10
2018-10-05T09:42:45.306Z,27.20
2018-10-05T09:45:13.445Z,27.40
2018-10-05T09:47:41.576Z,27.70
2018-10-05T09:50:10.311Z,27.60
2018-10-05T09:52:38.620Z,27.60
2018-10-05T09:55:06.613Z,27.80
2018-10-05T09:57:34.785Z,27.50
2018-10-05T10:00:03.269Z,27.00
2018-10-05T10:02:36.817Z,27.20
2018-10-05T10:05:04.961Z,27.10
2018-10-05T10:07:33.051Z,26.90
2018-10-05T10:10:01.205Z,27.40
2018-10-05T10:12:39.333Z,27.60
2018-10-05T10:15:07.501Z,28.00
2018-10-05T10:17:35.611Z,28.30
2018-10-05T10:20:03.851Z,28.30
2018-10-05T10:22:32.093Z,28.00
2018-10-05T10:25:00.171Z,27.80
2018-10-05T10:27:28.357Z,27.50
2018-10-05T10:29:56.442Z,27.30
2018-10-05T10:32:24.585Z,27.40
2018-10-05T10:34:52.734Z,27.00
2018-10-05T10:37:20.921Z,27.70
2018-10-05T10:39:49.099Z,28.00
2018-10-05T10:42:17.263Z,28.60
2018-10-05T10:44:45.455Z,29.40
2018-10-05T10:47:13.591Z,30.00
2018-10-05T10:49:41.757Z,30.30
2018-10-05T10:52:09.884Z,29.90
2018-10-05T10:54:37.989Z,29.60
2018-10-05T10:57:06.226Z,30.30
2018-10-05T10:59:34.353Z,30.30
2018-10-05T11:02:02.470Z,29.90
2018-10-05T11:04:30.680Z,29.80
2018-10-05T11:06:58.729Z,29.70
2018-10-05T11:09:26.871Z,29.60
2018-10-05T11:11:54.987Z,30.40
2018-10-05T11:14:23.130Z,29.50
2018-10-05T11:16:51.290Z,29.10
2018-10-05T11:19:19.785Z,28.90
2018-10-05T11:21:48.002Z,29.60
2018-10-05T11:24:16.097Z,30.30
2018-10-05T11:26:44.252Z,31.00
2018-10-05T11:29:12.427Z,30.20
2018-10-05T11:31:40.531Z,29.10
2018-10-05T11:34:08.689Z,29.10
2018-10-05T11:36:36.834Z,29.80
2018-10-05T11:39:05.390Z,30.80
2018-10-05T11:41:33.607Z,30.30
2018-10-05T11:44:01.813Z,30.00
2018-10-05T11:46:30.343Z,30.50
2018-10-05T11:48:58.566Z,30.30
2018-10-05T11:51:26.811Z,30.00
2018-10-05T11:53:54.941Z,30.20
2018-10-05T11:56:23.051Z,30.80
2018-10-05T11:58:51.233Z,31.60
2018-10-05T12:01:19.775Z,31.10
2018-10-05T12:03:47.927Z,30.40
2018-10-05T12:06:16.080Z,29.70
2018-10-05T12:08:44.204Z,29.90
2018-10-05T12:11:12.372Z,30.30
2018-10-05T12:13:41.842Z,30.60
2018-10-05T12:16:10.068Z,31.00
2018-10-05T12:18:38.172Z,30.40
2018-10-05T12:21:06.358Z,30.10
2018-10-05T12:23:34.480Z,30.00
2018-10-05T12:26:02.702Z,29.50
2018-10-05T12:28:30.941Z,29.50
2018-10-05T12:30:59.123Z,29.70
2018-10-05T12:33:27.301Z,29.90
2018-10-05T12:35:55.459Z,29.60
2018-10-05T12:38:23.598Z,30.10
2018-10-05T12:40:51.774Z,30.50
2018-10-05T12:43:19.898Z,30.40
2018-10-05T12:45:48.102Z,29.50
2018-10-05T12:48:16.201Z,29.50
2018-10-05T12:50:44.367Z,30.20
2018-10-05T12:53:12.504Z,29.80
2018-10-05T12:55:40.662Z,29.70
2018-10-05T12:58:08.836Z,29.60
2018-10-05T13:00:36.983Z,30.10
2018-10-05T13:03:06.119Z,29.70
2018-10-05T13:05:34.237Z,29.50
2018-10-05T13:08:03.456Z,29.50
2018-10-05T13:10:31.697Z,29.70
2018-10-05T13:12:59.944Z,29.50
2018-10-05T13:15:28.044Z,29.50
2018-10-05T13:17:56.220Z,29.00
2018-10-05T13:20:24.340Z,29.80
2018-10-05T13:22:52.514Z,30.20
2018-10-05T13:25:20.656Z,30.10
2018-10-05T13:27:48.767Z,30.10
2018-10-05T13:30:16.932Z,29.70
2018-10-05T13:32:45.122Z,29.60
2018-10-05T13:35:13.273Z,29.40
2018-10-05T13:37:41.414Z,29.20
2018-10-05T13:40:09.562Z,29.10
2018-10-05T13:42:37.730Z,28.70
2018-10-05T13:45:05.885Z,29.00
2018-10-05T13:47:35.020Z,29.20
2018-10-05T13:50:03.190Z,29.40
2018-10-05T13:52:31.308Z,29.40
2018-10-05T13:54:59.477Z,29.10
2018-10-05T13:57:27.667Z,28.70
2018-10-05T13:59:55.861Z,28.70
2018-10-05T14:02:24.063Z,28.90
2018-10-05T14:04:52.175Z,29.10
2018-10-05T14:07:21.304Z,28.90
2018-10-05T14:09:49.481Z,28.20
2018-10-05T14:12:18.494Z,27.80
2018-10-05T14:14:46.720Z,27.90
2018-10-05T14:17:14.878Z,27.80
2018-10-05T14:19:43.129Z,27.60
2018-10-05T14:22:11.328Z,27.80
2018-10-05T14:24:39.625Z,27.60
2018-10-05T14:27:07.865Z,27.10
2018-10-05T14:29:36.545Z,26.80
2018-10-05T14:32:04.697Z,26.70
2018-10-05T14:34:32.802Z,26.30
2018-10-05T14:37:01.446Z,25.30
2018-10-05T14:39:29.651Z,23.80
2018-10-05T14:41:57.722Z,22.60
2018-10-05T14:44:26.178Z,21.80
2018-10-05T14:46:54.372Z,21.30
2018-10-05T14:49:22.494Z,20.80
2018-10-05T14:51:50.726Z,20.40
2018-10-05T14:54:18.891Z,20.10
2018-10-05T14:56:47.020Z,19.90
2018-10-05T14:59:15.144Z,19.80
2018-10-05T15:01:43.305Z,19.70
2018-10-05T15:04:13.256Z,19.70
2018-10-05T15:06:41.432Z,19.60
2018-10-05T15:09:09.645Z,19.60
2018-10-05T15:11:38.029Z,19.50
2018-10-05T15:14:06.202Z,19.50
2018-10-05T15:16:34.361Z,19.30
2018-10-05T15:19:02.533Z,19.20
2018-10-05T15:21:31.034Z,19.10
2018-10-05T15:23:59.137Z,19.00
2018-10-05T15:26:27.303Z,18.80
2018-10-05T15:28:55.820Z,18.70
2018-10-05T15:31:23.940Z,18.60
2018-10-05T15:33:52.056Z,18.50
2018-10-05T15:36:20.238Z,18.40
2018-10-05T15:38:48.454Z,18.40
2018-10-05T15:41:16.648Z,18.30
2018-10-05T15:43:44.770Z,18.10
2018-10-05T15:46:22.945Z,18.00
2018-10-05T15:48:51.069Z,17.80
2018-10-05T15:51:19.190Z,17.70
2018-10-05T15:53:47.299Z,17.60
2018-10-05T15:56:15.441Z,17.40
2018-10-05T15:58:43.573Z,17.20
2018-10-05T16:01:11.791Z,17.10
2018-10-05T16:03:40.815Z,16.90
2018-10-05T16:06:08.953Z,16.80
2018-10-05T16:08:37.061Z,16.70
2018-10-05T16:11:05.167Z,16.50
2018-10-05T16:13:33.379Z,16.50
2018-10-05T16:16:01.516Z,16.30
2018-10-05T16:18:29.646Z,16.20
2018-10-05T16:20:58.777Z,16.10
2018-10-05T16:23:26.942Z,16.00
2018-10-05T16:25:55.056Z,15.80
2018-10-05T16:28:23.191Z,15.50
2018-10-05T16:30:51.411Z,15.30
2018-10-05T16:33:19.569Z,15.00
2018-10-05T16:35:47.717Z,14.90
2018-10-05T16:38:16.887Z,14.80
2018-10-05T16:40:45.041Z,14.70
2018-10-05T16:43:13.193Z,14.60
2018-10-05T16:45:41.371Z,14.50
2018-10-05T16:48:09.604Z,14.50
2018-10-05T16:50:37.754Z,14.40
2018-10-05T16:53:06.012Z,14.30
2018-10-05T16:55:34.102Z,14.10
2018-10-05T16:58:02.230Z,14.00
2018-10-05T17:00:30.382Z,13.90
2018-10-05T17:02:58.519Z,13.80
2018-10-05T17:05:26.586Z,13.70
2018-10-05T17:07:54.674Z,13.70
2018-10-05T17:10:22.792Z,13.60
2018-10-05T17:12:50.851Z,13.50
2018-10-05T17:15:18.934Z,13.50
2018-10-05T17:17:47.039Z,13.40
2018-10-05T17:20:15.114Z,13.30
2018-10-05T17:22:43.226Z,13.20
2018-10-05T17:25:11.338Z,13.10
2018-10-05T17:27:39.565Z,13.10
2018-10-05T17:30:07.667Z,13.00
2018-10-05T17:32:35.781Z,12.90
2018-10-05T17:35:03.864Z,12.80
2018-10-05T17:37:31.939Z,12.70
2018-10-05T17:39:59.999Z,12.70
2018-10-05T17:42:28.138Z,12.60
2018-10-05T17:44:56.451Z,12.50
2018-10-05T17:47:24.480Z,12.50
2018-10-05T17:49:52.566Z,12.40
2018-10-05T17:52:20.650Z,12.30
2018-10-05T17:54:48.722Z,12.10
2018-10-05T17:57:16.815Z,11.90
2018-10-05T17:59:44.891Z,11.70
2018-10-05T18:02:13.090Z,11.50
2018-10-05T18:04:41.069Z,11.30
2018-10-05T18:07:09.181Z,11.10
2018-10-05T18:09:37.232Z,11.00
2018-10-05T18:12:05.341Z,10.80
2018-10-05T18:14:33.425Z,10.70
2018-10-05T18:17:02.522Z,10.60
2018-10-05T18:19:30.638Z,10.60
2018-10-05T18:21:59.770Z,10.60
2018-10-05T18:24:27.873Z,10.50
2018-10-05T18:26:56.008Z,10.50
2018-10-05T18:29:24.094Z,10.40
2018-10-05T18:31:52.154Z,10.40
2018-10-05T18:34:20.254Z,10.40
2018-10-05T18:36:48.383Z,10.30
2018-10-05T18:39:16.460Z,10.30
2018-10-05T18:41:44.593Z,10.20
2018-10-05T18:46:46.032Z,10.10
2018-10-05T18:49:14.108Z,10.00
2018-10-05T18:51:42.220Z,10.00
2018-10-05T18:54:10.317Z,9.90
2018-10-05T18:56:49.740Z,9.90
2018-10-05T18:59:17.809Z,9.90
2018-10-05T19:01:45.894Z,9.90
2018-10-05T19:04:13.971Z,9.80
2018-10-05T19:06:42.093Z,9.80
2018-10-05T19:09:10.181Z,9.80
2018-10-05T19:11:38.401Z,9.80
2018-10-05T19:14:06.625Z,9.80
2018-10-05T19:16:34.695Z,9.80
2018-10-05T19:19:03.186Z,9.80
2018-10-05T19:21:31.424Z,9.70
2018-10-05T19:23:59.507Z,9.70
2018-10-05T19:26:27.798Z,9.60
2018-10-05T19:28:55.703Z,9.50
2018-10-05T19:31:23.794Z,9.40
2018-10-05T19:33:51.869Z,9.30
2018-10-05T19:36:20.016Z,9.10
2018-10-05T19:38:48.094Z,9.00
2018-10-05T19:41:17.069Z,8.90
2018-10-05T19:43:45.145Z,8.80
2018-10-05T19:46:13.374Z,8.80
2018-10-05T19:48:41.446Z,8.80
2018-10-05T19:51:09.556Z,8.80
2018-10-05T19:53:37.781Z,8.90
2018-10-05T19:56:05.730Z,9.00
2018-10-05T19:58:33.844Z,9.10
2018-10-05T20:01:01.949Z,9.20
2018-10-05T20:03:30.090Z,9.20
2018-10-05T20:05:58.189Z,9.10
2018-10-05T20:08:26.297Z,8.90
2018-10-05T20:10:54.408Z,8.80
2018-10-05T20:13:22.752Z,8.60
2018-10-05T20:15:50.853Z,8.50
2018-10-05T20:18:19.188Z,8.40
2018-10-05T20:20:47.362Z,8.30
2018-10-05T20:23:15.488Z,8.10
2018-10-05T20:25:43.588Z,8.10
2018-10-05T20:28:11.779Z,8.20
2018-10-05T20:30:39.872Z,8.30
2018-10-05T20:33:07.951Z,8.30
2018-10-05T20:35:36.130Z,8.30
2018-10-05T20:38:04.170Z,8.30
2018-10-05T20:40:33.449Z,8.20
2018-10-05T20:43:01.550Z,8.10
2018-10-05T20:45:29.706Z,8.00
2018-10-05T20:47:57.803Z,7.90
2018-10-05T20:50:25.981Z,7.90
2018-10-05T20:52:54.455Z,8.00
2018-10-05T20:55:22.547Z,8.00
2018-10-05T20:57:50.668Z,7.90
2018-10-05T21:00:18.780Z,7.90
2018-10-05T21:02:46.868Z,7.80
2018-10-05T21:05:14.976Z,7.70
2018-10-05T21:07:43.213Z,7.60
2018-10-05T21:10:11.324Z,7.60
2018-10-05T21:12:39.522Z,7.50
2018-10-05T21:15:07.728Z,7.50
2018-10-05T21:17:35.758Z,7.50
2018-10-05T21:20:04.130Z,7.50
2018-10-05T21:22:32.219Z,7.40
2018-10-05T21:25:00.362Z,7.40
2018-10-05T21:27:28.530Z,7.50
2018-10-05T21:29:56.622Z,7.50
2018-10-05T21:32:24.720Z,7.50
2018-10-05T21:34:52.782Z,7.50
2018-10-05T21:37:20.908Z,7.50
2018-10-05T21:39:48.988Z,7.60
2018-10-05T21:42:17.049Z,7.70
2018-10-05T21:44:45.164Z,7.70
2018-10-05T21:47:13.248Z,7.70
2018-10-05T21:49:41.328Z,7.70
2018-10-05T21:52:09.424Z,7.70
2018-10-05T21:54:37.528Z,7.70
2018-10-05T21:57:05.675Z,7.70
2018-10-05T21:59:33.776Z,7.80
2018-10-05T22:02:01.855Z,7.80
2018-10-05T22:04:29.978Z,7.80
2018-10-05T22:06:58.223Z,7.80
2018-10-05T22:09:26.307Z,7.70
2018-10-05T22:11:54.448Z,7.60
2018-10-05T22:14:22.536Z,7.70
2018-10-05T22:16:50.634Z,7.70
2018-10-05T22:19:18.757Z,7.60
2018-10-05T22:21:46.858Z,7.60
2018-10-05T22:24:14.948Z,7.50
2018-10-05T22:26:43.058Z,7.50
2018-10-05T22:29:11.149Z,7.40
2018-10-05T22:31:39.236Z,7.30
2018-10-05T22:34:08.068Z,7.20
2018-10-05T22:36:36.149Z,7.20
2018-10-05T22:39:05.622Z,7.20
2018-10-05T22:41:33.701Z,7.20
2018-10-05T22:44:01.785Z,7.20
2018-10-05T22:46:29.891Z,7.10
2018-10-05T22:48:57.996Z,7.10
2018-10-05T22:51:26.325Z,7.00
2018-10-05T22:53:54.434Z,7.00
2018-10-05T22:56:22.508Z,7.00
2018-10-05T22:58:50.601Z,6.90
2018-10-05T23:01:18.760Z,6.80
2018-10-05T23:03:46.921Z,6.80
2018-10-05T23:06:15.060Z,6.70
2018-10-05T23:08:43.212Z,6.60
2018-10-05T23:11:11.295Z,6.60
2018-10-05T23:13:40.383Z,6.50
2018-10-05T23:16:08.522Z,6.60
2018-10-05T23:18:36.612Z,6.70
2018-10-05T23:21:04.716Z,6.80
2018-10-05T23:23:32.880Z,6.90
2018-10-05T23:26:00.976Z,7.00
2018-10-05T23:28:29.061Z,7.10
2018-10-05T23:30:57.156Z,7.10
2018-10-05T23:33:25.238Z,7.00
2018-10-05T23:35:53.325Z,6.80
2018-10-05T23:38:21.421Z,6.70
2018-10-05T23:40:49.522Z,6.60
2018-10-05T23:43:17.611Z,6.50
2018-10-05T23:45:45.724Z,6.50
2018-10-05T23:48:13.807Z,6.60
2018-10-05T23:50:41.912Z,6.60
2018-10-05T23:53:10.002Z,6.60
2018-10-05T23:55:38.093Z,6.70
2018-10-05T23:58:06.212Z,6.70
